sensor_id;sensor_type;location;lat;lon;timestamp;pressure;altitude;pressure_sealevel;temperature;humidity
70200;BME280;57587;55.688;37.600;2023-05-24T00:00:21;99543.97;;;16.63;67.65
70200;BME280;57587;55.688;37.600;2023-05-24T00:02:48;99544.19;;;16.62;66.25
70200;BME280;57587;55.688;37.600;2023-05-24T00:05:16;99531.13;;;16.58;66.89
70200;BME280;57587;55.688;37.600;2023-05-24T00:07:44;99538.25;;;16.53;67.58
70200;BME280;57587;55.688;37.600;2023-05-24T00:10:11;99538.69;;;16.50;68.24
70200;BME280;57587;55.688;37.600;2023-05-24T00:12:39;99531.72;;;16.42;67.86
70200;BME280;57587;55.688;37.600;2023-05-24T00:15:06;99533.59;;;16.42;68.36
70200;BME280;57587;55.688;37.600;2023-05-24T00:17:34;99526.16;;;16.37;68.60
70200;BME280;57587;55.688;37.600;2023-05-24T00:20:09;99534.69;;;16.34;68.64
70200;BME280;57587;55.688;37.600;2023-05-24T00:22:40;99524.13;;;16.32;68.87
70200;BME280;57587;55.688;37.600;2023-05-24T00:25:08;99527.03;;;16.31;69.46
70200;BME280;57587;55.688;37.600;2023-05-24T00:27:35;99516.53;;;16.23;69.02
70200;BME280;57587;55.688;37.600;2023-05-24T00:30:04;99522.09;;;16.28;69.88
70200;BME280;57587;55.688;37.600;2023-05-24T00:32:36;99525.84;;;16.27;69.19
70200;BME280;57587;55.688;37.600;2023-05-24T00:35:03;99510.31;;;16.22;68.68
70200;BME280;57587;55.688;37.600;2023-05-24T00:37:31;99504.69;;;16.24;69.70
70200;BME280;57587;55.688;37.600;2023-05-24T00:39:58;99505.13;;;16.21;69.14
70200;BME280;57587;55.688;37.600;2023-05-24T00:42:25;99501.19;;;16.23;69.67
70200;BME280;57587;55.688;37.600;2023-05-24T00:44:53;99494.47;;;16.26;68.80
70200;BME280;57587;55.688;37.600;2023-05-24T00:47:20;99491.41;;;16.22;68.83
70200;BME280;57587;55.688;37.600;2023-05-24T00:49:47;99492.03;;;16.24;68.92
70200;BME280;57587;55.688;37.600;2023-05-24T00:52:15;99495.16;;;16.21;68.86
70200;BME280;57587;55.688;37.600;2023-05-24T00:54:43;99492.03;;;16.24;69.08
70200;BME280;57587;55.688;37.600;2023-05-24T00:57:10;99499.88;;;16.26;69.06
70200;BME280;57587;55.688;37.600;2023-05-24T00:59:40;99488.06;;;16.27;68.72
70200;BME280;57587;55.688;37.600;2023-05-24T01:02:07;99495.47;;;16.31;68.51
70200;BME280;57587;55.688;37.600;2023-05-24T01:04:34;99487.97;;;16.33;68.50
70200;BME280;57587;55.688;37.600;2023-05-24T01:13:11;99479.97;;;16.27;67.94
70200;BME280;57587;55.688;37.600;2023-05-24T01:18:35;99483.63;;;16.32;69.17
70200;BME280;57587;55.688;37.600;2023-05-24T01:21:15;99481.75;;;16.33;69.18
70200;BME280;57587;55.688;37.600;2023-05-24T01:29:20;99471.09;;;16.38;68.07
70200;BME280;57587;55.688;37.600;2023-05-24T01:31:49;99474.41;;;16.40;68.29
70200;BME280;57587;55.688;37.600;2023-05-24T01:34:17;99471.09;;;16.38;67.92
70200;BME280;57587;55.688;37.600;2023-05-24T01:36:46;99481.97;;;16.31;67.41
70200;BME280;57587;55.688;37.600;2023-05-24T01:39:13;99466.53;;;16.39;67.67
70200;BME280;57587;55.688;37.600;2023-05-24T01:41:47;99474.78;;;16.44;67.65
70200;BME280;57587;55.688;37.600;2023-05-24T01:44:38;99474.78;;;16.44;67.72
70200;BME280;57587;55.688;37.600;2023-05-24T01:49:53;99479.53;;;16.48;68.03
70200;BME280;57587;55.688;37.600;2023-05-24T01:52:26;99479.53;;;16.48;68.04
70200;BME280;57587;55.688;37.600;2023-05-24T01:54:56;99479.06;;;16.51;68.29
70200;BME280;57587;55.688;37.600;2023-05-24T01:57:25;99485.28;;;16.52;68.14
70200;BME280;57587;55.688;37.600;2023-05-24T01:59:54;99475.94;;;16.54;67.92
70200;BME280;57587;55.688;37.600;2023-05-24T02:02:23;99473.34;;;16.59;67.96
70200;BME280;57587;55.688;37.600;2023-05-24T02:04:50;99468.34;;;16.63;68.55
70200;BME280;57587;55.688;37.600;2023-05-24T02:07:17;99463.78;;;16.64;68.41
70200;BME280;57587;55.688;37.600;2023-05-24T02:09:45;99457.56;;;16.63;68.56
70200;BME280;57587;55.688;37.600;2023-05-24T02:12:12;99459.19;;;16.64;67.44
70200;BME280;57587;55.688;37.600;2023-05-24T02:14:39;99466.59;;;16.69;66.91
70200;BME280;57587;55.688;37.600;2023-05-24T02:17:08;99461.19;;;16.69;66.81
70200;BME280;57587;55.688;37.600;2023-05-24T02:19:36;99473.69;;;16.70;66.45
70200;BME280;57587;55.688;37.600;2023-05-24T02:22:05;99464.06;;;16.74;66.68
70200;BME280;57587;55.688;37.600;2023-05-24T02:24:33;99460.75;;;16.72;67.26
70200;BME280;57587;55.688;37.600;2023-05-24T02:27:00;99464.88;;;16.74;66.55
70200;BME280;57587;55.688;37.600;2023-05-24T02:29:28;99452.00;;;16.76;66.48
70200;BME280;57587;55.688;37.600;2023-05-24T02:31:55;99455.91;;;16.80;66.69
70200;BME280;57587;55.688;37.600;2023-05-24T02:34:23;99457.53;;;16.81;66.42
70200;BME280;57587;55.688;37.600;2023-05-24T02:36:50;99462.00;;;16.76;66.05
70200;BME280;57587;55.688;37.600;2023-05-24T02:39:20;99459.03;;;16.77;65.95
70200;BME280;57587;55.688;37.600;2023-05-24T02:41:47;99447.19;;;16.78;65.97
70200;BME280;57587;55.688;37.600;2023-05-24T02:44:14;99456.88;;;16.86;65.54
70200;BME280;57587;55.688;37.600;2023-05-24T02:46:41;99453.09;;;16.87;65.50
70200;BME280;57587;55.688;37.600;2023-05-24T02:49:09;99459.13;;;16.89;65.47
70200;BME280;57587;55.688;37.600;2023-05-24T02:51:36;99455.59;;;16.89;65.55
70200;BME280;57587;55.688;37.600;2023-05-24T02:54:03;99446.88;;;16.87;65.25
70200;BME280;57587;55.688;37.600;2023-05-24T02:56:30;99445.38;;;16.91;64.28
70200;BME280;57587;55.688;37.600;2023-05-24T02:58:57;99451.47;;;16.86;64.26
70200;BME280;57587;55.688;37.600;2023-05-24T03:01:25;99448.31;;;16.89;64.33
70200;BME280;57587;55.688;37.600;2023-05-24T03:03:54;99441.94;;;16.83;64.28
70200;BME280;57587;55.688;37.600;2023-05-24T03:06:22;99449.81;;;16.85;64.33
70200;BME280;57587;55.688;37.600;2023-05-24T03:08:50;99448.59;;;16.81;64.59
70200;BME280;57587;55.688;37.600;2023-05-24T03:11:18;99441.13;;;16.83;64.53
70200;BME280;57587;55.688;37.600;2023-05-24T03:13:48;99440.19;;;16.89;64.67
70200;BME280;57587;55.688;37.600;2023-05-24T03:16:15;99447.03;;;16.92;64.43
70200;BME280;57587;55.688;37.600;2023-05-24T03:18:47;99447.53;;;17.00;64.35
70200;BME280;57587;55.688;37.600;2023-05-24T03:21:17;99451.56;;;17.10;64.13
70200;BME280;57587;55.688;37.600;2023-05-24T03:23:47;99453.47;;;17.21;63.43
70200;BME280;57587;55.688;37.600;2023-05-24T03:26:14;99448.25;;;17.38;63.49
70200;BME280;57587;55.688;37.600;2023-05-24T03:28:41;99445.94;;;17.53;62.73
70200;BME280;57587;55.688;37.600;2023-05-24T03:31:09;99437.13;;;17.69;62.51
70200;BME280;57587;55.688;37.600;2023-05-24T03:33:36;99435.53;;;17.80;62.04
70200;BME280;57587;55.688;37.600;2023-05-24T03:36:04;99431.06;;;17.86;61.48
70200;BME280;57587;55.688;37.600;2023-05-24T03:38:35;99431.53;;;17.94;61.19
70200;BME280;57587;55.688;37.600;2023-05-24T03:41:02;99426.13;;;17.94;60.38
70200;BME280;57587;55.688;37.600;2023-05-24T03:43:29;99429.91;;;17.93;60.75
70200;BME280;57587;55.688;37.600;2023-05-24T03:46:00;99430.25;;;17.97;60.88
70200;BME280;57587;55.688;37.600;2023-05-24T03:48:28;99425.41;;;17.99;60.78
70200;BME280;57587;55.688;37.600;2023-05-24T03:50:55;99427.06;;;18.00;60.39
70200;BME280;57587;55.688;37.600;2023-05-24T03:53:22;99419.41;;;17.97;60.02
70200;BME280;57587;55.688;37.600;2023-05-24T03:55:49;99421.88;;;17.98;60.69
70200;BME280;57587;55.688;37.600;2023-05-24T03:58:17;99421.66;;;17.88;60.87
70200;BME280;57587;55.688;37.600;2023-05-24T04:00:46;99414.47;;;17.82;60.06
70200;BME280;57587;55.688;37.600;2023-05-24T04:03:13;99411.63;;;17.77;60.24
70200;BME280;57587;55.688;37.600;2023-05-24T04:05:41;99420.94;;;17.81;60.46
70200;BME280;57587;55.688;37.600;2023-05-24T04:08:09;99427.41;;;17.80;59.98
70200;BME280;57587;55.688;37.600;2023-05-24T04:10:37;99424.22;;;17.83;60.00
70200;BME280;57587;55.688;37.600;2023-05-24T04:13:04;99414.00;;;17.85;60.05
70200;BME280;57587;55.688;37.600;2023-05-24T04:15:35;99409.88;;;17.94;59.58
70200;BME280;57587;55.688;37.600;2023-05-24T04:18:04;99417.19;;;18.06;59.64
70200;BME280;57587;55.688;37.600;2023-05-24T04:20:33;99423.88;;;18.15;59.15
70200;BME280;57587;55.688;37.600;2023-05-24T04:23:01;99423.41;;;18.18;59.20
70200;BME280;57587;55.688;37.600;2023-05-24T04:25:29;99430.94;;;18.28;58.92
70200;BME280;57587;55.688;37.600;2023-05-24T04:27:56;99422.69;;;18.34;58.81
70200;BME280;57587;55.688;37.600;2023-05-24T04:30:24;99420.91;;;18.40;58.80
70200;BME280;57587;55.688;37.600;2023-05-24T04:32:51;99409.44;;;18.61;58.00
70200;BME280;57587;55.688;37.600;2023-05-24T04:35:19;99408.84;;;19.00;56.93
70200;BME280;57587;55.688;37.600;2023-05-24T04:37:47;99406.75;;;20.03;54.45
70200;BME280;57587;55.688;37.600;2023-05-24T04:40:18;99416.75;;;21.61;50.18
70200;BME280;57587;55.688;37.600;2023-05-24T04:42:49;99419.81;;;22.55;47.51
70200;BME280;57587;55.688;37.600;2023-05-24T04:45:16;99420.63;;;23.85;44.81
70200;BME280;57587;55.688;37.600;2023-05-24T04:47:43;99415.34;;;24.99;41.55
70200;BME280;57587;55.688;37.600;2023-05-24T04:50:11;99421.75;;;26.51;38.85
70200;BME280;57587;55.688;37.600;2023-05-24T04:52:38;99415.91;;;27.38;36.72
70200;BME280;57587;55.688;37.600;2023-05-24T04:55:05;99414.97;;;27.29;36.38
70200;BME280;57587;55.688;37.600;2023-05-24T04:57:33;99426.66;;;27.16;36.29
70200;BME280;57587;55.688;37.600;2023-05-24T05:00:00;99424.00;;;27.81;35.28
70200;BME280;57587;55.688;37.600;2023-05-24T05:02:31;99429.72;;;28.31;34.30
70200;BME280;57587;55.688;37.600;2023-05-24T05:04:59;99418.13;;;28.62;33.67
70200;BME280;57587;55.688;37.600;2023-05-24T05:07:26;99417.25;;;28.20;34.17
70200;BME280;57587;55.688;37.600;2023-05-24T05:09:53;99425.25;;;27.89;35.07
70200;BME280;57587;55.688;37.600;2023-05-24T05:12:20;99432.34;;;26.81;36.52
70200;BME280;57587;55.688;37.600;2023-05-24T05:14:47;99436.09;;;26.42;37.90
70200;BME280;57587;55.688;37.600;2023-05-24T05:17:14;99430.47;;;26.29;37.61
70200;BME280;57587;55.688;37.600;2023-05-24T05:19:41;99433.38;;;26.13;38.23
70200;BME280;57587;55.688;37.600;2023-05-24T05:22:08;99440.44;;;25.56;38.92
70200;BME280;57587;55.688;37.600;2023-05-24T05:24:36;99444.50;;;25.24;40.08
70200;BME280;57587;55.688;37.600;2023-05-24T05:27:04;99435.78;;;24.57;41.25
70200;BME280;57587;55.688;37.600;2023-05-24T05:29:31;99433.09;;;24.32;41.53
70200;BME280;57587;55.688;37.600;2023-05-24T05:31:59;99438.56;;;24.32;41.88
70200;BME280;57587;55.688;37.600;2023-05-24T05:34:26;99436.72;;;24.07;42.04
70200;BME280;57587;55.688;37.600;2023-05-24T05:36:53;99439.97;;;24.19;41.58
70200;BME280;57587;55.688;37.600;2023-05-24T05:39:20;99423.53;;;24.24;42.29
70200;BME280;57587;55.688;37.600;2023-05-24T05:41:47;99428.22;;;24.08;42.11
70200;BME280;57587;55.688;37.600;2023-05-24T05:44:14;99426.88;;;24.16;42.17
70200;BME280;57587;55.688;37.600;2023-05-24T05:46:41;99433.19;;;24.01;42.39
70200;BME280;57587;55.688;37.600;2023-05-24T05:49:12;99419.69;;;24.41;41.35
70200;BME280;57587;55.688;37.600;2023-05-24T05:51:41;99411.25;;;24.97;40.34
70200;BME280;57587;55.688;37.600;2023-05-24T05:54:08;99428.69;;;25.16;40.24
70200;BME280;57587;55.688;37.600;2023-05-24T05:56:41;99425.94;;;25.16;40.31
70200;BME280;57587;55.688;37.600;2023-05-24T05:59:11;99429.31;;;24.17;41.86
70200;BME280;57587;55.688;37.600;2023-05-24T06:01:39;99433.44;;;23.43;43.98
70200;BME280;57587;55.688;37.600;2023-05-24T06:04:07;99426.81;;;23.04;44.49
70200;BME280;57587;55.688;37.600;2023-05-24T06:06:34;99429.97;;;22.75;45.81
70200;BME280;57587;55.688;37.600;2023-05-24T06:09:01;99419.31;;;22.16;46.87
70200;BME280;57587;55.688;37.600;2023-05-24T06:11:28;99411.72;;;21.80;48.03
70200;BME280;57587;55.688;37.600;2023-05-24T06:13:55;99416.03;;;21.76;47.93
70200;BME280;57587;55.688;37.600;2023-05-24T06:16:22;99409.00;;;21.80;48.38
70200;BME280;57587;55.688;37.600;2023-05-24T06:18:49;99416.16;;;21.92;48.25
70200;BME280;57587;55.688;37.600;2023-05-24T06:21:31;99414.34;;;22.02;48.07
70200;BME280;57587;55.688;37.600;2023-05-24T06:23:59;99406.63;;;21.94;48.15
70200;BME280;57587;55.688;37.600;2023-05-24T06:26:28;99410.94;;;21.85;48.38
70200;BME280;57587;55.688;37.600;2023-05-24T06:28:57;99403.44;;;22.02;47.66
70200;BME280;57587;55.688;37.600;2023-05-24T06:31:24;99413.72;;;21.95;47.69
70200;BME280;57587;55.688;37.600;2023-05-24T06:33:52;99406.41;;;22.01;48.03
70200;BME280;57587;55.688;37.600;2023-05-24T06:36:30;99418.59;;;22.30;47.14
70200;BME280;57587;55.688;37.600;2023-05-24T06:39:01;99416.50;;;22.48;46.27
70200;BME280;57587;55.688;37.600;2023-05-24T06:41:29;99418.94;;;22.39;46.92
70200;BME280;57587;55.688;37.600;2023-05-24T06:43:56;99418.97;;;22.54;46.62
70200;BME280;57587;55.688;37.600;2023-05-24T06:46:24;99416.56;;;22.63;46.24
70200;BME280;57587;55.688;37.600;2023-05-24T06:48:51;99413.72;;;22.38;46.66
70200;BME280;57587;55.688;37.600;2023-05-24T06:51:18;99406.72;;;22.52;46.94
70200;BME280;57587;55.688;37.600;2023-05-24T06:53:45;99409.16;;;22.48;47.13
70200;BME280;57587;55.688;37.600;2023-05-24T06:56:12;99403.72;;;22.48;46.92
70200;BME280;57587;55.688;37.600;2023-05-24T06:58:40;99405.34;;;22.54;45.78
70200;BME280;57587;55.688;37.600;2023-05-24T07:01:08;99403.53;;;22.81;46.77
70200;BME280;57587;55.688;37.600;2023-05-24T07:03:35;99408.53;;;22.99;44.95
70200;BME280;57587;55.688;37.600;2023-05-24T07:06:03;99409.41;;;23.56;44.27
70200;BME280;57587;55.688;37.600;2023-05-24T07:08:31;99407.69;;;24.42;42.08
70200;BME280;57587;55.688;37.600;2023-05-24T07:10:58;99404.81;;;24.72;41.27
70200;BME280;57587;55.688;37.600;2023-05-24T07:13:25;99410.56;;;25.20;40.01
70200;BME280;57587;55.688;37.600;2023-05-24T07:15:53;99414.00;;;27.20;35.97
70200;BME280;57587;55.688;37.600;2023-05-24T07:18:20;99409.47;;;29.18;33.54
70200;BME280;57587;55.688;37.600;2023-05-24T07:20:47;99412.84;;;29.02;33.12
70200;BME280;57587;55.688;37.600;2023-05-24T07:23:15;99423.19;;;28.82;33.53
70200;BME280;57587;55.688;37.600;2023-05-24T07:25:42;99420.22;;;27.77;34.76
70200;BME280;57587;55.688;37.600;2023-05-24T07:28:09;99419.97;;;27.03;36.22
70200;BME280;57587;55.688;37.600;2023-05-24T07:30:36;99409.28;;;26.10;37.58
70200;BME280;57587;55.688;37.600;2023-05-24T07:33:05;99420.50;;;25.80;39.04
70200;BME280;57587;55.688;37.600;2023-05-24T07:35:32;99416.50;;;25.67;39.43
70200;BME280;57587;55.688;37.600;2023-05-24T07:37:59;99418.66;;;25.41;39.46
70200;BME280;57587;55.688;37.600;2023-05-24T07:40:26;99413.88;;;25.17;40.47
70200;BME280;57587;55.688;37.600;2023-05-24T07:42:54;99413.16;;;24.42;41.94
70200;BME280;57587;55.688;37.600;2023-05-24T07:45:21;99418.00;;;24.55;42.00
70200;BME280;57587;55.688;37.600;2023-05-24T07:47:48;99417.56;;;24.17;42.67
70200;BME280;57587;55.688;37.600;2023-05-24T07:50:16;99417.59;;;24.07;42.62
70200;BME280;57587;55.688;37.600;2023-05-24T07:52:43;99418.97;;;23.99;42.84
70200;BME280;57587;55.688;37.600;2023-05-24T07:55:11;99417.06;;;23.74;44.21
70200;BME280;57587;55.688;37.600;2023-05-24T07:57:38;99414.59;;;23.62;44.07
70200;BME280;57587;55.688;37.600;2023-05-24T08:00:06;99417.59;;;23.35;44.53
70200;BME280;57587;55.688;37.600;2023-05-24T08:02:41;99424.38;;;23.12;44.54
70200;BME280;57587;55.688;37.600;2023-05-24T08:05:13;99420.81;;;23.01;44.99
70200;BME280;57587;55.688;37.600;2023-05-24T08:07:40;99437.72;;;22.98;45.18
70200;BME280;57587;55.688;37.600;2023-05-24T08:10:11;99423.84;;;23.25;45.10
70200;BME280;57587;55.688;37.600;2023-05-24T08:12:40;99428.50;;;23.30;45.15
70200;BME280;57587;55.688;37.600;2023-05-24T08:15:08;99431.50;;;23.29;44.96
70200;BME280;57587;55.688;37.600;2023-05-24T08:17:36;99428.53;;;23.51;44.64
70200;BME280;57587;55.688;37.600;2023-05-24T08:20:04;99431.78;;;23.53;44.39
70200;BME280;57587;55.688;37.600;2023-05-24T08:22:42;99435.91;;;23.55;44.37
70200;BME280;57587;55.688;37.600;2023-05-24T08:25:10;99436.97;;;23.39;44.65
70200;BME280;57587;55.688;37.600;2023-05-24T08:27:40;99430.94;;;23.32;45.43
70200;BME280;57587;55.688;37.600;2023-05-24T08:30:07;99432.31;;;23.24;45.61
70200;BME280;57587;55.688;37.600;2023-05-24T08:32:35;99433.13;;;23.24;44.68
70200;BME280;57587;55.688;37.600;2023-05-24T08:35:02;99436.66;;;23.15;45.53
70200;BME280;57587;55.688;37.600;2023-05-24T08:37:47;99438.25;;;22.95;45.82
70200;BME280;57587;55.688;37.600;2023-05-24T08:40:15;99430.28;;;22.84;46.64
70200;BME280;57587;55.688;37.600;2023-05-24T08:42:44;99430.22;;;22.68;46.71
70200;BME280;57587;55.688;37.600;2023-05-24T08:45:13;99434.31;;;22.76;46.03
70200;BME280;57587;55.688;37.600;2023-05-24T08:47:41;99430.97;;;22.53;46.84
70200;BME280;57587;55.688;37.600;2023-05-24T08:50:10;99434.50;;;22.54;47.27
70200;BME280;57587;55.688;37.600;2023-05-24T08:52:37;99424.41;;;22.49;47.81
70200;BME280;57587;55.688;37.600;2023-05-24T08:55:06;99433.66;;;22.43;46.76
70200;BME280;57587;55.688;37.600;2023-05-24T08:57:34;99428.53;;;22.52;47.01
70200;BME280;57587;55.688;37.600;2023-05-24T09:00:09;99434.28;;;22.66;47.16
70200;BME280;57587;55.688;37.600;2023-05-24T09:02:40;99431.38;;;22.88;46.77
70200;BME280;57587;55.688;37.600;2023-05-24T09:05:10;99432.84;;;23.16;46.56
70200;BME280;57587;55.688;37.600;2023-05-24T09:07:37;99406.34;;;23.06;45.89
70200;BME280;57587;55.688;37.600;2023-05-24T09:10:07;99426.03;;;23.23;45.66
70200;BME280;57587;55.688;37.600;2023-05-24T09:12:39;99426.81;;;23.09;45.15
70200;BME280;57587;55.688;37.600;2023-05-24T09:15:10;99434.19;;;23.03;45.65
70200;BME280;57587;55.688;37.600;2023-05-24T09:17:37;99430.59;;;22.92;44.58
70200;BME280;57587;55.688;37.600;2023-05-24T09:20:07;99428.94;;;22.91;44.69
70200;BME280;57587;55.688;37.600;2023-05-24T09:22:35;99424.91;;;23.09;44.61
70200;BME280;57587;55.688;37.600;2023-05-24T09:25:09;99425.75;;;23.15;44.58
70200;BME280;57587;55.688;37.600;2023-05-24T09:27:37;99432.88;;;23.46;44.28
70200;BME280;57587;55.688;37.600;2023-05-24T09:30:09;99432.88;;;23.62;43.57
70200;BME280;57587;55.688;37.600;2023-05-24T09:32:37;99438.38;;;23.67;43.60
70200;BME280;57587;55.688;37.600;2023-05-24T09:35:07;99434.25;;;23.54;43.04
70200;BME280;57587;55.688;37.600;2023-05-24T09:37:36;99435.09;;;23.44;42.87
70200;BME280;57587;55.688;37.600;2023-05-24T09:40:05;99443.53;;;23.48;42.85
70200;BME280;57587;55.688;37.600;2023-05-24T09:42:34;99440.81;;;23.63;43.09
70200;BME280;57587;55.688;37.600;2023-05-24T09:45:06;99430.97;;;23.67;42.97
70200;BME280;57587;55.688;37.600;2023-05-24T09:47:39;99434.00;;;24.02;41.91
70200;BME280;57587;55.688;37.600;2023-05-24T09:50:16;99427.91;;;24.41;42.07
70200;BME280;57587;55.688;37.600;2023-05-24T09:52:44;99438.69;;;24.81;41.60
70200;BME280;57587;55.688;37.600;2023-05-24T09:55:16;99430.13;;;24.98;40.65
70200;BME280;57587;55.688;37.600;2023-05-24T09:57:44;99440.25;;;24.98;40.78
70200;BME280;57587;55.688;37.600;2023-05-24T10:00:23;99442.91;;;25.18;40.32
70200;BME280;57587;55.688;37.600;2023-05-24T10:03:10;99438.16;;;25.34;40.79
70200;BME280;57587;55.688;37.600;2023-05-24T10:05:41;99440.13;;;25.23;40.39
70200;BME280;57587;55.688;37.600;2023-05-24T10:08:11;99445.78;;;24.88;40.86
70200;BME280;57587;55.688;37.600;2023-05-24T10:10:38;99440.81;;;24.95;39.87
70200;BME280;57587;55.688;37.600;2023-05-24T10:13:05;99442.75;;;24.89;40.00
70200;BME280;57587;55.688;37.600;2023-05-24T10:15:33;99443.69;;;24.69;40.13
70200;BME280;57587;55.688;37.600;2023-05-24T10:18:00;99443.44;;;24.55;41.15
70200;BME280;57587;55.688;37.600;2023-05-24T10:20:37;99447.63;;;24.17;40.72
70200;BME280;57587;55.688;37.600;2023-05-24T10:23:09;99443.28;;;23.90;42.06
70200;BME280;57587;55.688;37.600;2023-05-24T10:25:41;99450.94;;;24.04;42.14
70200;BME280;57587;55.688;37.600;2023-05-24T10:28:12;99452.06;;;23.82;42.58
70200;BME280;57587;55.688;37.600;2023-05-24T10:33:23;99455.88;;;23.71;43.18
70200;BME280;57587;55.688;37.600;2023-05-24T10:35:51;99459.41;;;23.72;43.85
70200;BME280;57587;55.688;37.600;2023-05-24T10:38:21;99459.66;;;23.90;43.79
70200;BME280;57587;55.688;37.600;2023-05-24T10:40:49;99459.16;;;23.88;42.89
70200;BME280;57587;55.688;37.600;2023-05-24T10:43:17;99462.09;;;24.12;42.63
70200;BME280;57587;55.688;37.600;2023-05-24T10:45:48;99462.63;;;24.25;42.14
70200;BME280;57587;55.688;37.600;2023-05-24T10:50:50;99456.63;;;24.12;42.50
70200;BME280;57587;55.688;37.600;2023-05-24T10:53:20;99453.91;;;24.12;42.73
70200;BME280;57587;55.688;37.600;2023-05-24T10:55:58;99456.94;;;24.01;42.74
70200;BME280;57587;55.688;37.600;2023-05-24T10:58:42;99462.41;;;23.90;43.29
70200;BME280;57587;55.688;37.600;2023-05-24T11:01:24;99471.16;;;23.77;43.85
70200;BME280;57587;55.688;37.600;2023-05-24T11:04:11;99467.34;;;23.83;43.94
70200;BME280;57587;55.688;37.600;2023-05-24T11:09:22;99469.81;;;23.69;43.99
70200;BME280;57587;55.688;37.600;2023-05-24T11:11:54;99459.13;;;23.99;43.33
70200;BME280;57587;55.688;37.600;2023-05-24T11:14:23;99465.66;;;24.28;42.79
70200;BME280;57587;55.688;37.600;2023-05-24T11:16:51;99467.84;;;24.47;42.91
70200;BME280;57587;55.688;37.600;2023-05-24T11:19:20;99473.53;;;24.40;43.18
70200;BME280;57587;55.688;37.600;2023-05-24T11:21:49;99469.72;;;24.31;43.66
70200;BME280;57587;55.688;37.600;2023-05-24T11:24:17;99477.69;;;24.12;43.30
70200;BME280;57587;55.688;37.600;2023-05-24T11:26:45;99471.44;;;24.01;43.32
70200;BME280;57587;55.688;37.600;2023-05-24T11:29:13;99474.41;;;24.00;43.86
70200;BME280;57587;55.688;37.600;2023-05-24T11:32:16;99477.16;;;24.00;43.88
70200;BME280;57587;55.688;37.600;2023-05-24T11:34:47;99476.06;;;23.90;43.64
70200;BME280;57587;55.688;37.600;2023-05-24T11:37:15;99485.38;;;23.89;43.28
70200;BME280;57587;55.688;37.600;2023-05-24T11:39:49;99483.75;;;23.88;43.36
70200;BME280;57587;55.688;37.600;2023-05-24T11:42:19;99488.09;;;23.84;43.64
70200;BME280;57587;55.688;37.600;2023-05-24T11:44:47;99484.78;;;23.62;44.22
70200;BME280;57587;55.688;37.600;2023-05-24T11:47:14;99485.31;;;23.59;44.36
70200;BME280;57587;55.688;37.600;2023-05-24T11:49:41;99483.19;;;23.71;44.13
70200;BME280;57587;55.688;37.600;2023-05-24T11:52:08;99486.44;;;23.78;44.35
70200;BME280;57587;55.688;37.600;2023-05-24T11:54:35;99474.97;;;23.97;44.16
70200;BME280;57587;55.688;37.600;2023-05-24T11:57:04;99475.25;;;24.10;44.16
70200;BME280;57587;55.688;37.600;2023-05-24T11:59:32;99464.03;;;24.22;43.58
70200;BME280;57587;55.688;37.600;2023-05-24T12:02:03;99469.50;;;24.17;43.91
70200;BME280;57587;55.688;37.600;2023-05-24T12:04:32;99470.84;;;24.09;44.37
70200;BME280;57587;55.688;37.600;2023-05-24T12:07:01;99465.16;;;24.01;44.52
70200;BME280;57587;55.688;37.600;2023-05-24T12:09:28;99466.75;;;24.12;44.35
70200;BME280;57587;55.688;37.600;2023-05-24T12:11:56;99464.88;;;24.07;44.17
70200;BME280;57587;55.688;37.600;2023-05-24T12:14:26;99462.97;;;23.82;44.48
70200;BME280;57587;55.688;37.600;2023-05-24T12:16:54;99469.25;;;23.83;45.34
70200;BME280;57587;55.688;37.600;2023-05-24T12:19:24;99466.22;;;23.84;45.63
70200;BME280;57587;55.688;37.600;2023-05-24T12:21:56;99461.31;;;23.86;44.55
70200;BME280;57587;55.688;37.600;2023-05-24T12:24:25;99457.50;;;23.82;44.47
70200;BME280;57587;55.688;37.600;2023-05-24T12:27:00;99461.06;;;23.73;44.63
70200;BME280;57587;55.688;37.600;2023-05-24T12:29:35;99456.16;;;23.85;44.64
70200;BME280;57587;55.688;37.600;2023-05-24T12:32:03;99453.13;;;23.91;45.42
70200;BME280;57587;55.688;37.600;2023-05-24T12:34:31;99464.88;;;23.87;44.52
70200;BME280;57587;55.688;37.600;2023-05-24T12:36:58;99463.78;;;23.83;44.72
70200;BME280;57587;55.688;37.600;2023-05-24T12:39:28;99457.50;;;23.77;44.60
70200;BME280;57587;55.688;37.600;2023-05-24T12:42:01;99455.81;;;23.66;44.81
70200;BME280;57587;55.688;37.600;2023-05-24T12:44:36;99449.28;;;23.62;44.91
70200;BME280;57587;55.688;37.600;2023-05-24T12:47:05;99444.66;;;23.57;45.30
70200;BME280;57587;55.688;37.600;2023-05-24T12:49:33;99440.78;;;23.53;45.35
70200;BME280;57587;55.688;37.600;2023-05-24T12:52:00;99439.97;;;23.53;45.20
70200;BME280;57587;55.688;37.600;2023-05-24T12:54:28;99446.00;;;23.55;45.62
70200;BME280;57587;55.688;37.600;2023-05-24T12:56:56;99447.09;;;23.59;45.93
70200;BME280;57587;55.688;37.600;2023-05-24T12:59:27;99455.31;;;23.69;45.45
70200;BME280;57587;55.688;37.600;2023-05-24T13:01:54;99457.50;;;23.77;45.76
70200;BME280;57587;55.688;37.600;2023-05-24T13:04:22;99459.69;;;23.80;45.43
70200;BME280;57587;55.688;37.600;2023-05-24T13:06:52;99462.16;;;23.77;46.21
70200;BME280;57587;55.688;37.600;2023-05-24T13:09:19;99461.31;;;23.71;45.80
70200;BME280;57587;55.688;37.600;2023-05-24T13:11:51;99458.56;;;23.56;45.54
70200;BME280;57587;55.688;37.600;2023-05-24T13:14:20;99468.13;;;23.58;46.71
70200;BME280;57587;55.688;37.600;2023-05-24T13:16:47;99474.69;;;23.57;46.74
70200;BME280;57587;55.688;37.600;2023-05-24T13:19:15;99460.47;;;23.50;46.42
70200;BME280;57587;55.688;37.600;2023-05-24T13:21:44;99471.66;;;23.59;46.52
70200;BME280;57587;55.688;37.600;2023-05-24T13:24:13;99470.84;;;23.68;46.36